sensor_id;sensor_type;location;lat;lon;timestamp;P1;durP1;ratioP1;P2;durP2;ratioP2
80127;SDS011;69440;52.118;5.408;2023-08-30T00:00:48;7.35;;;4.47;;
80127;SDS011;69440;52.118;5.408;2023-08-30T00:03:15;5.70;;;4.10;;
80127;SDS011;69440;52.118;5.408;2023-08-30T00:05:42;6.55;;;4.28;;
80127;SDS011;69440;52.118;5.408;2023-08-30T00:08:08;5.80;;;4.05;;
80127;SDS011;69440;52.118;5.408;2023-08-30T00:10:35;6.28;;;4.35;;
80127;SDS011;69440;52.118;5.408;2023-08-30T00:13:04;6.88;;;4.00;;
80127;SDS011;69440;52.118;5.408;2023-08-30T00:15:30;8.40;;;5.03;;
80127;SDS011;69440;52.118;5.408;2023-08-30T00:17:57;6.38;;;4.50;;
80127;SDS011;69440;52.118;5.408;2023-08-30T00:20:24;7.18;;;4.68;;
80127;SDS011;69440;52.118;5.408;2023-08-30T00:22:50;8.43;;;4.47;;
80127;SDS011;69440;52.118;5.408;2023-08-30T00:25:17;7.47;;;4.40;;
80127;SDS011;69440;52.118;5.408;2023-08-30T00:27:43;7.47;;;5.22;;
80127;SDS011;69440;52.118;5.408;2023-08-30T00:30:10;8.70;;;4.38;;
80127;SDS011;69440;52.118;5.408;2023-08-30T00:32:38;6.55;;;4.65;;
80127;SDS011;69440;52.118;5.408;2023-08-30T00:35:04;7.28;;;4.30;;
80127;SDS011;69440;52.118;5.408;2023-08-30T00:37:31;7.43;;;4.47;;
80127;SDS011;69440;52.118;5.408;2023-08-30T00:39:57;11.05;;;5.60;;
80127;SDS011;69440;52.118;5.408;2023-08-30T00:42:25;8.52;;;4.82;;
80127;SDS011;69440;52.118;5.408;2023-08-30T00:44:53;7.70;;;4.82;;
80127;SDS011;69440;52.118;5.408;2023-08-30T00:47:20;7.07;;;4.97;;
80127;SDS011;69440;52.118;5.408;2023-08-30T00:49:47;8.30;;;5.38;;
80127;SDS011;69440;52.118;5.408;2023-08-30T00:52:14;8.73;;;4.80;;
80127;SDS011;69440;52.118;5.408;2023-08-30T00:54:41;7.88;;;4.88;;
80127;SDS011;69440;52.118;5.408;2023-08-30T00:57:08;9.55;;;5.22;;
80127;SDS011;69440;52.118;5.408;2023-08-30T00:59:35;8.25;;;5.10;;
80127;SDS011;69440;52.118;5.408;2023-08-30T01:02:03;9.00;;;5.00;;
80127;SDS011;69440;52.118;5.408;2023-08-30T01:04:30;6.50;;;4.50;;
80127;SDS011;69440;52.118;5.408;2023-08-30T01:06:57;7.90;;;4.90;;
80127;SDS011;69440;52.118;5.408;2023-08-30T01:09:24;8.50;;;5.03;;
80127;SDS011;69440;52.118;5.408;2023-08-30T01:14:34;7.20;;;4.68;;
80127;SDS011;69440;52.118;5.408;2023-08-30T01:17:08;8.35;;;4.68;;
80127;SDS011;69440;52.118;5.408;2023-08-30T01:25:00;8.05;;;4.60;;
80127;SDS011;69440;52.118;5.408;2023-08-30T01:27:35;8.35;;;5.00;;
80127;SDS011;69440;52.118;5.408;2023-08-30T01:30:04;7.32;;;5.00;;
80127;SDS011;69440;52.118;5.408;2023-08-30T01:32:33;7.15;;;4.90;;
80127;SDS011;69440;52.118;5.408;2023-08-30T01:35:03;7.38;;;4.50;;
80127;SDS011;69440;52.118;5.408;2023-08-30T01:37:31;9.60;;;4.65;;
80127;SDS011;69440;52.118;5.408;2023-08-30T01:39:59;7.28;;;4.60;;
80127;SDS011;69440;52.118;5.408;2023-08-30T01:42:30;7.97;;;5.13;;
80127;SDS011;69440;52.118;5.408;2023-08-30T01:44:58;7.97;;;4.82;;
80127;SDS011;69440;52.118;5.408;2023-08-30T01:47:27;9.23;;;5.18;;
80127;SDS011;69440;52.118;5.408;2023-08-30T01:49:54;9.20;;;5.15;;
80127;SDS011;69440;52.118;5.408;2023-08-30T01:52:22;8.65;;;5.13;;
80127;SDS011;69440;52.118;5.408;2023-08-30T01:54:50;9.07;;;5.28;;
80127;SDS011;69440;52.118;5.408;2023-08-30T01:57:18;7.93;;;4.88;;
80127;SDS011;69440;52.118;5.408;2023-08-30T01:59:45;8.15;;;5.22;;
80127;SDS011;69440;52.118;5.408;2023-08-30T02:02:12;8.70;;;4.57;;
80127;SDS011;69440;52.118;5.408;2023-08-30T02:04:38;9.50;;;5.40;;
80127;SDS011;69440;52.118;5.408;2023-08-30T02:07:08;8.52;;;5.10;;
80127;SDS011;69440;52.118;5.408;2023-08-30T02:12:13;8.05;;;5.28;;
80127;SDS011;69440;52.118;5.408;2023-08-30T02:14:45;9.48;;;5.55;;
80127;SDS011;69440;52.118;5.408;2023-08-30T02:17:15;9.63;;;5.68;;
80127;SDS011;69440;52.118;5.408;2023-08-30T02:19:44;8.73;;;5.10;;
80127;SDS011;69440;52.118;5.408;2023-08-30T02:22:11;8.25;;;5.22;;
80127;SDS011;69440;52.118;5.408;2023-08-30T02:24:38;8.77;;;5.78;;
80127;SDS011;69440;52.118;5.408;2023-08-30T02:27:04;8.73;;;5.13;;
80127;SDS011;69440;52.118;5.408;2023-08-30T02:29:31;8.63;;;5.05;;
80127;SDS011;69440;52.118;5.408;2023-08-30T02:31:58;10.32;;;5.55;;
80127;SDS011;69440;52.118;5.408;2023-08-30T02:34:24;8.95;;;5.60;;
80127;SDS011;69440;52.118;5.408;2023-08-30T02:36:50;9.60;;;5.85;;
80127;SDS011;69440;52.118;5.408;2023-08-30T02:39:17;10.48;;;6.15;;
80127;SDS011;69440;52.118;5.408;2023-08-30T02:41:44;9.65;;;5.72;;
80127;SDS011;69440;52.118;5.408;2023-08-30T02:44:13;11.10;;;5.78;;
80127;SDS011;69440;52.118;5.408;2023-08-30T02:46:40;9.82;;;5.75;;
80127;SDS011;69440;52.118;5.408;2023-08-30T02:49:07;9.68;;;5.72;;
80127;SDS011;69440;52.118;5.408;2023-08-30T02:51:35;10.60;;;6.18;;
80127;SDS011;69440;52.118;5.408;2023-08-30T02:54:01;12.07;;;6.45;;
80127;SDS011;69440;52.118;5.408;2023-08-30T02:56:28;11.73;;;5.80;;
80127;SDS011;69440;52.118;5.408;2023-08-30T02:58:55;9.25;;;5.63;;
80127;SDS011;69440;52.118;5.408;2023-08-30T03:01:21;11.90;;;6.88;;
80127;SDS011;69440;52.118;5.408;2023-08-30T03:03:48;13.13;;;6.78;;
80127;SDS011;69440;52.118;5.408;2023-08-30T03:06:14;10.32;;;6.18;;
80127;SDS011;69440;52.118;5.408;2023-08-30T03:08:41;10.75;;;6.38;;
80127;SDS011;69440;52.118;5.408;2023-08-30T03:11:11;10.98;;;6.38;;
80127;SDS011;69440;52.118;5.408;2023-08-30T03:13:38;10.05;;;6.20;;
80127;SDS011;69440;52.118;5.408;2023-08-30T03:16:14;11.73;;;6.45;;
80127;SDS011;69440;52.118;5.408;2023-08-30T03:18:42;11.75;;;7.22;;
80127;SDS011;69440;52.118;5.408;2023-08-30T03:21:10;9.55;;;6.45;;
80127;SDS011;69440;52.118;5.408;2023-08-30T03:23:37;12.32;;;6.55;;
80127;SDS011;69440;52.118;5.408;2023-08-30T03:26:14;11.10;;;6.43;;
80127;SDS011;69440;52.118;5.408;2023-08-30T03:28:42;13.18;;;6.90;;
80127;SDS011;69440;52.118;5.408;2023-08-30T03:31:15;12.35;;;6.90;;
80127;SDS011;69440;52.118;5.408;2023-08-30T03:33:46;14.18;;;6.90;;
80127;SDS011;69440;52.118;5.408;2023-08-30T03:36:17;9.68;;;6.32;;
80127;SDS011;69440;52.118;5.408;2023-08-30T03:38:44;12.20;;;6.60;;
80127;SDS011;69440;52.118;5.408;2023-08-30T03:41:12;11.02;;;6.20;;
80127;SDS011;69440;52.118;5.408;2023-08-30T03:43:38;12.80;;;6.90;;
80127;SDS011;69440;52.118;5.408;2023-08-30T03:46:05;12.75;;;7.10;;
80127;SDS011;69440;52.118;5.408;2023-08-30T03:48:32;14.25;;;7.00;;
80127;SDS011;69440;52.118;5.408;2023-08-30T03:50:58;12.02;;;6.53;;
80127;SDS011;69440;52.118;5.408;2023-08-30T03:53:25;12.02;;;6.78;;
80127;SDS011;69440;52.118;5.408;2023-08-30T03:55:51;10.48;;;6.60;;
80127;SDS011;69440;52.118;5.408;2023-08-30T03:58:18;12.30;;;6.53;;
80127;SDS011;69440;52.118;5.408;2023-08-30T04:00:45;11.80;;;6.65;;
80127;SDS011;69440;52.118;5.408;2023-08-30T04:03:12;12.40;;;7.10;;
80127;SDS011;69440;52.118;5.408;2023-08-30T04:05:40;12.10;;;6.90;;
80127;SDS011;69440;52.118;5.408;2023-08-30T04:08:07;12.13;;;6.63;;
80127;SDS011;69440;52.118;5.408;2023-08-30T04:10:36;14.05;;;7.38;;
80127;SDS011;69440;52.118;5.408;2023-08-30T04:13:06;12.30;;;6.93;;
80127;SDS011;69440;52.118;5.408;2023-08-30T04:15:35;10.20;;;5.90;;
80127;SDS011;69440;52.118;5.408;2023-08-30T04:18:03;10.63;;;6.90;;
80127;SDS011;69440;52.118;5.408;2023-08-30T04:20:31;13.82;;;6.82;;
80127;SDS011;69440;52.118;5.408;2023-08-30T04:23:01;13.43;;;6.50;;
80127;SDS011;69440;52.118;5.408;2023-08-30T04:25:28;10.15;;;6.57;;
80127;SDS011;69440;52.118;5.408;2023-08-30T04:27:55;12.63;;;7.05;;
80127;SDS011;69440;52.118;5.408;2023-08-30T04:30:22;12.25;;;6.70;;
80127;SDS011;69440;52.118;5.408;2023-08-30T04:32:49;10.48;;;6.28;;
80127;SDS011;69440;52.118;5.408;2023-08-30T04:35:16;12.23;;;6.57;;
80127;SDS011;69440;52.118;5.408;2023-08-30T04:37:43;10.63;;;6.28;;
80127;SDS011;69440;52.118;5.408;2023-08-30T04:40:09;10.60;;;6.82;;
80127;SDS011;69440;52.118;5.408;2023-08-30T04:42:36;12.68;;;6.70;;
80127;SDS011;69440;52.118;5.408;2023-08-30T04:45:04;14.27;;;6.45;;
80127;SDS011;69440;52.118;5.408;2023-08-30T04:47:31;11.23;;;6.38;;
80127;SDS011;69440;52.118;5.408;2023-08-30T04:49:58;12.35;;;6.68;;
80127;SDS011;69440;52.118;5.408;2023-08-30T04:52:25;13.52;;;6.88;;
80127;SDS011;69440;52.118;5.408;2023-08-30T04:54:52;10.02;;;6.35;;
80127;SDS011;69440;52.118;5.408;2023-08-30T04:57:18;10.43;;;6.50;;
80127;SDS011;69440;52.118;5.408;2023-08-30T04:59:45;12.93;;;6.65;;
80127;SDS011;69440;52.118;5.408;2023-08-30T05:02:12;10.43;;;5.85;;
80127;SDS011;69440;52.118;5.408;2023-08-30T05:04:39;13.90;;;6.57;;
80127;SDS011;69440;52.118;5.408;2023-08-30T05:07:05;11.77;;;6.45;;
80127;SDS011;69440;52.118;5.408;2023-08-30T05:09:32;10.55;;;6.22;;
80127;SDS011;69440;52.118;5.408;2023-08-30T05:12:00;10.93;;;6.18;;
80127;SDS011;69440;52.118;5.408;2023-08-30T05:14:27;11.63;;;6.30;;
80127;SDS011;69440;52.118;5.408;2023-08-30T05:16:53;15.35;;;6.97;;
80127;SDS011;69440;52.118;5.408;2023-08-30T05:19:20;12.45;;;5.75;;
80127;SDS011;69440;52.118;5.408;2023-08-30T05:21:46;12.00;;;6.82;;
80127;SDS011;69440;52.118;5.408;2023-08-30T05:24:13;11.77;;;6.50;;
80127;SDS011;69440;52.118;5.408;2023-08-30T05:26:40;10.57;;;6.18;;
80127;SDS011;69440;52.118;5.408;2023-08-30T05:29:06;13.25;;;6.90;;
80127;SDS011;69440;52.118;5.408;2023-08-30T05:31:33;10.82;;;6.20;;
80127;SDS011;69440;52.118;5.408;2023-08-30T05:33:59;10.57;;;6.55;;
80127;SDS011;69440;52.118;5.408;2023-08-30T05:36:25;13.15;;;7.50;;
80127;SDS011;69440;52.118;5.408;2023-08-30T05:38:52;13.98;;;6.93;;
80127;SDS011;69440;52.118;5.408;2023-08-30T05:41:18;13.20;;;7.28;;
80127;SDS011;69440;52.118;5.408;2023-08-30T05:43:45;13.65;;;6.90;;
80127;SDS011;69440;52.118;5.408;2023-08-30T05:46:11;11.55;;;6.53;;
80127;SDS011;69440;52.118;5.408;2023-08-30T05:48:41;11.20;;;6.90;;
80127;SDS011;69440;52.118;5.408;2023-08-30T05:51:08;10.93;;;6.65;;
80127;SDS011;69440;52.118;5.408;2023-08-30T05:53:34;12.60;;;6.93;;
80127;SDS011;69440;52.118;5.408;2023-08-30T05:56:01;12.02;;;6.72;;
80127;SDS011;69440;52.118;5.408;2023-08-30T05:58:27;11.13;;;7.13;;
80127;SDS011;69440;52.118;5.408;2023-08-30T06:00:54;11.15;;;6.45;;
80127;SDS011;69440;52.118;5.408;2023-08-30T06:03:20;13.10;;;6.97;;
80127;SDS011;69440;52.118;5.408;2023-08-30T06:05:47;10.88;;;6.35;;
80127;SDS011;69440;52.118;5.408;2023-08-30T06:08:15;12.48;;;6.80;;
80127;SDS011;69440;52.118;5.408;2023-08-30T06:10:41;12.35;;;6.95;;
80127;SDS011;69440;52.118;5.408;2023-08-30T06:13:08;11.52;;;6.72;;
80127;SDS011;69440;52.118;5.408;2023-08-30T06:15:35;11.20;;;6.65;;
80127;SDS011;69440;52.118;5.408;2023-08-30T06:18:04;13.02;;;6.90;;
80127;SDS011;69440;52.118;5.408;2023-08-30T06:20:31;11.98;;;6.60;;
80127;SDS011;69440;52.118;5.408;2023-08-30T06:22:57;12.68;;;7.20;;
80127;SDS011;69440;52.118;5.408;2023-08-30T06:25:25;10.50;;;6.13;;
80127;SDS011;69440;52.118;5.408;2023-08-30T06:27:55;11.02;;;6.57;;
80127;SDS011;69440;52.118;5.408;2023-08-30T06:30:25;12.18;;;6.72;;
80127;SDS011;69440;52.118;5.408;2023-08-30T06:32:52;11.77;;;6.25;;
80127;SDS011;69440;52.118;5.408;2023-08-30T06:35:18;14.48;;;6.88;;
80127;SDS011;69440;52.118;5.408;2023-08-30T06:37:45;11.50;;;7.00;;
80127;SDS011;69440;52.118;5.408;2023-08-30T06:40:12;10.90;;;6.25;;
80127;SDS011;69440;52.118;5.408;2023-08-30T06:42:38;12.23;;;6.78;;
80127;SDS011;69440;52.118;5.408;2023-08-30T06:45:05;9.68;;;6.05;;
80127;SDS011;69440;52.118;5.408;2023-08-30T06:47:32;12.40;;;6.85;;
80127;SDS011;69440;52.118;5.408;2023-08-30T06:50:00;13.40;;;6.38;;
80127;SDS011;69440;52.118;5.408;2023-08-30T06:52:27;11.25;;;6.40;;
80127;SDS011;69440;52.118;5.408;2023-08-30T06:54:53;12.27;;;6.60;;
80127;SDS011;69440;52.118;5.408;2023-08-30T06:57:20;15.18;;;7.53;;
80127;SDS011;69440;52.118;5.408;2023-08-30T06:59:48;13.13;;;7.15;;
80127;SDS011;69440;52.118;5.408;2023-08-30T07:02:14;13.68;;;6.93;;
80127;SDS011;69440;52.118;5.408;2023-08-30T07:04:41;13.23;;;7.13;;
80127;SDS011;69440;52.118;5.408;2023-08-30T07:07:07;14.80;;;7.38;;
80127;SDS011;69440;52.118;5.408;2023-08-30T07:09:34;10.43;;;6.63;;
80127;SDS011;69440;52.118;5.408;2023-08-30T07:12:00;12.52;;;6.68;;
80127;SDS011;69440;52.118;5.408;2023-08-30T07:14:27;11.48;;;7.22;;
80127;SDS011;69440;52.118;5.408;2023-08-30T07:16:53;14.88;;;7.20;;
80127;SDS011;69440;52.118;5.408;2023-08-30T07:19:20;12.80;;;7.60;;
80127;SDS011;69440;52.118;5.408;2023-08-30T07:21:46;12.30;;;6.85;;
80127;SDS011;69440;52.118;5.408;2023-08-30T07:24:13;14.48;;;7.43;;
80127;SDS011;69440;52.118;5.408;2023-08-30T07:26:39;14.05;;;7.30;;
80127;SDS011;69440;52.118;5.408;2023-08-30T07:29:06;12.30;;;6.80;;
80127;SDS011;69440;52.118;5.408;2023-08-30T07:31:33;15.18;;;7.60;;
80127;SDS011;69440;52.118;5.408;2023-08-30T07:33:59;14.32;;;7.68;;
80127;SDS011;69440;52.118;5.408;2023-08-30T07:36:26;14.85;;;7.18;;
80127;SDS011;69440;52.118;5.408;2023-08-30T07:39:12;13.38;;;7.07;;
80127;SDS011;69440;52.118;5.408;2023-08-30T07:41:39;13.60;;;7.65;;
80127;SDS011;69440;52.118;5.408;2023-08-30T07:44:05;12.95;;;6.93;;
80127;SDS011;69440;52.118;5.408;2023-08-30T07:46:32;11.98;;;7.03;;
80127;SDS011;69440;52.118;5.408;2023-08-30T07:48:58;14.05;;;7.00;;
80127;SDS011;69440;52.118;5.408;2023-08-30T07:51:25;14.75;;;6.88;;
80127;SDS011;69440;52.118;5.408;2023-08-30T07:53:51;12.73;;;7.22;;
80127;SDS011;69440;52.118;5.408;2023-08-30T07:56:18;13.73;;;6.70;;
80127;SDS011;69440;52.118;5.408;2023-08-30T07:58:44;11.65;;;7.13;;
80127;SDS011;69440;52.118;5.408;2023-08-30T08:01:11;12.20;;;6.88;;
80127;SDS011;69440;52.118;5.408;2023-08-30T08:03:37;12.57;;;6.70;;
80127;SDS011;69440;52.118;5.408;2023-08-30T08:06:14;12.10;;;7.07;;
80127;SDS011;69440;52.118;5.408;2023-08-30T08:08:40;14.20;;;7.38;;
80127;SDS011;69440;52.118;5.408;2023-08-30T08:11:07;9.88;;;6.40;;
80127;SDS011;69440;52.118;5.408;2023-08-30T08:13:34;10.70;;;6.43;;
80127;SDS011;69440;52.118;5.408;2023-08-30T08:16:00;12.15;;;6.35;;
80127;SDS011;69440;52.118;5.408;2023-08-30T08:18:27;11.88;;;6.13;;
80127;SDS011;69440;52.118;5.408;2023-08-30T08:20:53;10.80;;;6.47;;
80127;SDS011;69440;52.118;5.408;2023-08-30T08:23:20;9.88;;;6.30;;
80127;SDS011;69440;52.118;5.408;2023-08-30T08:25:46;10.77;;;5.88;;
80127;SDS011;69440;52.118;5.408;2023-08-30T08:28:13;9.20;;;5.70;;
80127;SDS011;69440;52.118;5.408;2023-08-30T08:30:40;9.32;;;5.75;;
80127;SDS011;69440;52.118;5.408;2023-08-30T08:33:08;11.30;;;6.07;;
80127;SDS011;69440;52.118;5.408;2023-08-30T08:35:35;10.40;;;5.88;;
80127;SDS011;69440;52.118;5.408;2023-08-30T08:38:01;10.05;;;6.43;;
80127;SDS011;69440;52.118;5.408;2023-08-30T08:40:28;11.02;;;5.60;;
80127;SDS011;69440;52.118;5.408;2023-08-30T08:43:08;10.88;;;5.90;;
80127;SDS011;69440;52.118;5.408;2023-08-30T08:45:37;9.65;;;5.78;;
80127;SDS011;69440;52.118;5.408;2023-08-30T08:48:03;11.98;;;6.47;;
80127;SDS011;69440;52.118;5.408;2023-08-30T08:50:31;8.90;;;5.63;;
80127;SDS011;69440;52.118;5.408;2023-08-30T08:52:59;9.20;;;6.15;;
80127;SDS011;69440;52.118;5.408;2023-08-30T08:55:27;8.05;;;5.32;;
80127;SDS011;69440;52.118;5.408;2023-08-30T08:57:59;9.15;;;5.45;;
80127;SDS011;69440;52.118;5.408;2023-08-30T09:00:26;9.73;;;5.88;;
80127;SDS011;69440;52.118;5.408;2023-08-30T09:02:53;9.82;;;5.63;;
80127;SDS011;69440;52.118;5.408;2023-08-30T09:05:21;8.40;;;5.38;;
80127;SDS011;69440;52.118;5.408;2023-08-30T09:07:48;9.45;;;5.60;;
80127;SDS011;69440;52.118;5.408;2023-08-30T09:10:20;8.57;;;5.45;;
80127;SDS011;69440;52.118;5.408;2023-08-30T09:12:47;10.60;;;5.30;;
80127;SDS011;69440;52.118;5.408;2023-08-30T09:15:14;9.40;;;5.68;;
80127;SDS011;69440;52.118;5.408;2023-08-30T09:17:43;8.43;;;5.40;;
80127;SDS011;69440;52.118;5.408;2023-08-30T09:20:10;7.93;;;5.25;;
80127;SDS011;69440;52.118;5.408;2023-08-30T09:22:41;9.27;;;5.80;;
80127;SDS011;69440;52.118;5.408;2023-08-30T09:25:09;8.90;;;4.82;;
80127;SDS011;69440;52.118;5.408;2023-08-30T09:27:37;7.90;;;5.05;;
80127;SDS011;69440;52.118;5.408;2023-08-30T09:30:08;8.95;;;5.18;;
80127;SDS011;69440;52.118;5.408;2023-08-30T09:32:40;9.05;;;5.30;;
80127;SDS011;69440;52.118;5.408;2023-08-30T09:35:08;9.07;;;5.35;;
80127;SDS011;69440;52.118;5.408;2023-08-30T09:37:35;7.93;;;5.15;;
80127;SDS011;69440;52.118;5.408;2023-08-30T09:40:02;8.88;;;5.63;;
80127;SDS011;69440;52.118;5.408;2023-08-30T09:42:28;9.30;;;5.60;;
80127;SDS011;69440;52.118;5.408;2023-08-30T09:44:55;9.68;;;5.05;;
80127;SDS011;69440;52.118;5.408;2023-08-30T09:47:26;8.65;;;5.25;;
80127;SDS011;69440;52.118;5.408;2023-08-30T09:49:54;9.07;;;5.88;;
80127;SDS011;69440;52.118;5.408;2023-08-30T09:52:23;8.25;;;5.43;;
80127;SDS011;69440;52.118;5.408;2023-08-30T09:54:51;8.27;;;5.80;;
80127;SDS011;69440;52.118;5.408;2023-08-30T09:57:18;11.40;;;6.13;;
80127;SDS011;69440;52.118;5.408;2023-08-30T09:59:45;9.07;;;5.82;;
80127;SDS011;69440;52.118;5.408;2023-08-30T10:02:12;9.75;;;6.43;;
80127;SDS011;69440;52.118;5.408;2023-08-30T10:04:39;9.52;;;5.97;;
80127;SDS011;69440;52.118;5.408;2023-08-30T10:07:07;9.60;;;6.28;;
80127;SDS011;69440;52.118;5.408;2023-08-30T10:09:36;11.43;;;7.20;;
80127;SDS011;69440;52.118;5.408;2023-08-30T10:12:17;10.38;;;6.80;;
80127;SDS011;69440;52.118;5.408;2023-08-30T10:14:47;9.80;;;6.25;;
80127;SDS011;69440;52.118;5.408;2023-08-30T10:17:14;12.98;;;7.00;;
80127;SDS011;69440;52.118;5.408;2023-08-30T10:19:44;11.70;;;7.30;;
80127;SDS011;69440;52.118;5.408;2023-08-30T10:22:11;8.95;;;6.55;;
80127;SDS011;69440;52.118;5.408;2023-08-30T10:24:42;12.43;;;7.50;;
80127;SDS011;69440;52.118;5.408;2023-08-30T10:27:33;11.10;;;8.38;;
80127;SDS011;69440;52.118;5.408;2023-08-30T10:30:01;10.57;;;7.75;;
80127;SDS011;69440;52.118;5.408;2023-08-30T10:32:30;10.38;;;7.63;;
80127;SDS011;69440;52.118;5.408;2023-08-30T10:35:00;10.95;;;7.47;;
80127;SDS011;69440;52.118;5.408;2023-08-30T10:37:29;10.68;;;7.78;;
80127;SDS011;69440;52.118;5.408;2023-08-30T10:39:59;9.80;;;7.63;;
80127;SDS011;69440;52.118;5.408;2023-08-30T10:42:29;9.38;;;6.80;;
80127;SDS011;69440;52.118;5.408;2023-08-30T10:47:39;8.45;;;5.95;;
80127;SDS011;69440;52.118;5.408;2023-08-30T10:50:10;7.43;;;5.25;;
80127;SDS011;69440;52.118;5.408;2023-08-30T10:52:38;6.32;;;5.38;;
80127;SDS011;69440;52.118;5.408;2023-08-30T10:55:14;5.03;;;4.15;;
80127;SDS011;69440;52.118;5.408;2023-08-30T10:57:42;7.15;;;3.95;;
80127;SDS011;69440;52.118;5.408;2023-08-30T11:00:20;6.32;;;4.10;;
80127;SDS011;69440;52.118;5.408;2023-08-30T11:02:50;7.70;;;3.83;;
80127;SDS011;69440;52.118;5.408;2023-08-30T11:05:18;7.35;;;3.90;;
80127;SDS011;69440;52.118;5.408;2023-08-30T11:07:47;7.25;;;3.05;;
80127;SDS011;69440;52.118;5.408;2023-08-30T11:10:15;5.32;;;2.63;;
80127;SDS011;69440;52.118;5.408;2023-08-30T11:12:43;5.93;;;2.72;;
80127;SDS011;69440;52.118;5.408;2023-08-30T11:15:11;10.07;;;2.80;;
80127;SDS011;69440;52.118;5.408;2023-08-30T11:17:41;6.70;;;2.38;;
80127;SDS011;69440;52.118;5.408;2023-08-30T11:20:12;8.40;;;2.42;;
80127;SDS011;69440;52.118;5.408;2023-08-30T11:22:41;6.30;;;2.17;;
80127;SDS011;69440;52.118;5.408;2023-08-30T11:25:10;6.60;;;2.50;;
80127;SDS011;69440;52.118;5.408;2023-08-30T11:27:38;6.70;;;2.70;;
80127;SDS011;69440;52.118;5.408;2023-08-30T11:30:05;6.53;;;2.53;;
80127;SDS011;69440;52.118;5.408;2023-08-30T11:32:35;5.35;;;2.40;;
80127;SDS011;69440;52.118;5.408;2023-08-30T11:35:03;4.95;;;2.47;;
80127;SDS011;69440;52.118;5.408;2023-08-30T11:37:30;6.38;;;2.53;;
80127;SDS011;69440;52.118;5.408;2023-08-30T11:39:58;5.35;;;2.13;;
80127;SDS011;69440;52.118;5.408;2023-08-30T11:42:25;7.22;;;2.90;;
80127;SDS011;69440;52.118;5.408;2023-08-30T11:44:52;10.40;;;2.70;;
80127;SDS011;69440;52.118;5.408;2023-08-30T11:47:19;6.10;;;2.10;;
80127;SDS011;69440;52.118;5.408;2023-08-30T11:49:47;5.53;;;2.35;;
80127;SDS011;69440;52.118;5.408;2023-08-30T11:52:16;5.38;;;2.22;;
80127;SDS011;69440;52.118;5.408;2023-08-30T11:54:44;5.22;;;2.22;;
80127;SDS011;69440;52.118;5.408;2023-08-30T11:57:11;6.82;;;2.65;;
80127;SDS011;69440;52.118;5.408;2023-08-30T11:59:37;6.00;;;2.50;;
80127;SDS011;69440;52.118;5.408;2023-08-30T12:02:05;8.20;;;2.38;;
80127;SDS011;69440;52.118;5.408;2023-08-30T12:04:40;8.18;;;2.25;;
80127;SDS011;69440;52.118;5.408;2023-08-30T12:07:21;9.35;;;2.10;;
80127;SDS011;69440;52.118;5.408;2023-08-30T12:09:49;5.10;;;2.20;;
80127;SDS011;69440;52.118;5.408;2023-08-30T12:12:16;14.15;;;2.45;;
80127;SDS011;69440;52.118;5.408;2023-08-30T12:14:42;6.72;;;1.80;;
80127;SDS011;69440;52.118;5.408;2023-08-30T12:17:09;6.15;;;1.85;;
80127;SDS011;69440;52.118;5.408;2023-08-30T12:19:38;5.68;;;1.45;;
80127;SDS011;69440;52.118;5.408;2023-08-30T12:22:08;4.75;;;1.60;;
80127;SDS011;69440;52.118;5.408;2023-08-30T12:24:44;9.38;;;1.80;;
80127;SDS011;69440;52.118;5.408;2023-08-30T12:27:11;6.35;;;1.60;;
80127;SDS011;69440;52.118;5.408;2023-08-30T12:29:38;4.40;;;1.42;;
80127;SDS011;69440;52.118;5.408;2023-08-30T12:32:04;8.30;;;2.00;;
80127;SDS011;69440;52.118;5.408;2023-08-30T12:34:32;4.43;;;2.00;;
80127;SDS011;69440;52.118;5.408;2023-08-30T12:36:58;5.25;;;1.50;;
80127;SDS011;69440;52.118;5.408;2023-08-30T12:39:28;4.22;;;1.45;;
80127;SDS011;69440;52.118;5.408;2023-08-30T12:41:55;5.10;;;1.58;;
80127;SDS011;69440;52.118;5.408;2023-08-30T12:44:22;6.72;;;1.75;;
80127;SDS011;69440;52.118;5.408;2023-08-30T12:46:48;5.53;;;1.75;;
80127;SDS011;69440;52.118;5.408;2023-08-30T12:49:14;6.43;;;1.50;;
80127;SDS011;69440;52.118;5.408;2023-08-30T12:51:41;4.38;;;1.48;;
80127;SDS011;69440;52.118;5.408;2023-08-30T12:54:07;4.97;;;1.50;;
80127;SDS011;69440;52.118;5.408;2023-08-30T12:56:34;5.28;;;1.58;;
80127;SDS011;69440;52.118;5.408;2023-08-30T12:59:00;6.07;;;1.50;;
80127;SDS011;69440;52.118;5.408;2023-08-30T13:01:27;5.85;;;1.50;;
80127;SDS011;69440;52.118;5.408;2023-08-30T13:03:53;4.10;;;1.30;;
80127;SDS011;69440;52.118;5.408;2023-08-30T13:06:20;5.60;;;1.40;;
80127;SDS011;69440;52.118;5.408;2023-08-30T13:08:46;6.15;;;1.70;;
80127;SDS011;69440;52.118;5.408;2023-08-30T13:11:13;7.47;;;1.42;;
80127;SDS011;69440;52.118;5.408;2023-08-30T13:13:39;5.97;;;1.60;;
80127;SDS011;69440;52.118;5.408;2023-08-30T13:16:06;5.00;;;1.60;;
80127;SDS011;69440;52.118;5.408;2023-08-30T13:18:32;6.70;;;2.05;;
80127;SDS011;69440;52.118;5.408;2023-08-30T13:20:59;7.75;;;1.60;;
80127;SDS011;69440;52.118;5.408;2023-08-30T13:23:25;5.72;;;1.70;;
80127;SDS011;69440;52.118;5.408;2023-08-30T13:25:52;7.10;;;1.42;;
80127;SDS011;69440;52.118;5.408;2023-08-30T13:28:18;7.78;;;1.77;;
80127;SDS011;69440;52.118;5.408;2023-08-30T13:30:45;6.93;;;1.98;;
80127;SDS011;69440;52.118;5.408;2023-08-30T13:33:12;4.10;;;1.38;;
80127;SDS011;69440;52.118;5.408;2023-08-30T13:35:39;4.85;;;1.60;;
80127;SDS011;69440;52.118;5.408;2023-08-30T13:38:06;5.03;;;1.88;;
80127;SDS011;69440;52.118;5.408;2023-08-30T13:40:32;9.57;;;2.05;;
80127;SDS011;69440;52.118;5.408;2023-08-30T13:42:59;7.25;;;1.75;;
80127;SDS011;69440;52.118;5.408;2023-08-30T13:45:25;5.93;;;1.73;;
80127;SDS011;69440;52.118;5.408;2023-08-30T13:47:52;5.38;;;1.48;;
80127;SDS011;69440;52.118;5.408;2023-08-30T13:50:21;6.28;;;1.60;;
80127;SDS011;69440;52.118;5.408;2023-08-30T13:52:47;6.32;;;1.63;;
80127;SDS011;69440;52.118;5.408;2023-08-30T13:55:14;5.50;;;1.38;;
80127;SDS011;69440;52.118;5.408;2023-08-30T13:57:40;6.63;;;1.55;;
80127;SDS011;69440;52.118;5.408;2023-08-30T14:00:07;6.25;;;1.90;;
80127;SDS011;69440;52.118;5.408;2023-08-30T14:02:36;4.63;;;1.60;;
80127;SDS011;69440;52.118;5.408;2023-08-30T14:05:03;4.97;;;1.27;;
80127;SDS011;69440;52.118;5.408;2023-08-30T14:07:30;6.78;;;1.38;;
80127;SDS011;69440;52.118;5.408;2023-08-30T14:09:56;3.67;;;1.17;;
80127;SDS011;69440;52.118;5.408;2023-08-30T14:12:24;5.82;;;1.45;;
80127;SDS011;69440;52.118;5.408;2023-08-30T14:14:50;4.95;;;1.23;;
80127;SDS011;69440;52.118;5.408;2023-08-30T14:17:19;4.18;;;1.02;;
80127;SDS011;69440;52.118;5.408;2023-08-30T14:19:48;3.20;;;1.17;;
80127;SDS011;69440;52.118;5.408;2023-08-30T14:22:15;3.42;;;1.17;;
80127;SDS011;69440;52.118;5.408;2023-08-30T14:24:41;4.93;;;1.27;;
80127;SDS011;69440;52.118;5.408;2023-08-30T14:27:28;4.20;;;1.40;;
80127;SDS011;69440;52.118;5.408;2023-08-30T14:29:54;6.13;;;1.40;;
80127;SDS011;69440;52.118;5.408;2023-08-30T14:32:21;4.57;;;1.27;;
80127;SDS011;69440;52.118;5.408;2023-08-30T14:34:48;6.95;;;1.33;;
80127;SDS011;69440;52.118;5.408;2023-08-30T14:37:14;5.47;;;1.10;;
80127;SDS011;69440;52.118;5.408;2023-08-30T14:39:41;3.58;;;1.42;;
80127;SDS011;69440;52.118;5.408;2023-08-30T14:42:07;4.70;;;1.23;;
80127;SDS011;69440;52.118;5.408;2023-08-30T14:44:34;4.95;;;1.50;;
80127;SDS011;69440;52.118;5.408;2023-08-30T14:47:00;6.00;;;1.73;;
80127;SDS011;69440;52.118;5.408;2023-08-30T14:49:27;4.57;;;1.40;;
80127;SDS011;69440;52.118;5.408;2023-08-30T14:51:53;4.55;;;1.50;;
80127;SDS011;69440;52.118;5.408;2023-08-30T14:54:20;6.40;;;1.42;;
80127;SDS011;69440;52.118;5.408;2023-08-30T14:56:46;7.88;;;1.77;;
80127;SDS011;69440;52.118;5.408;2023-08-30T14:59:13;4.25;;;1.60;;